Antelope, Oregon
Current Conditions -  °F | °C
As of 6:15 AM on Saturday 22 Nov 2014 (Local Time) from KS39 Reporting Station
Broken Clouds Broken Clouds  
Wind Chill:   Ceiling: 3900
Heat Index:   Visibility: 10mi
Dew Point:   Wind: 7mph
Humidity: 87%   Direction: 220°SW
Pressure: 29.76"   Gusts: NA
Location:  44.91°N, 120.72°W
Report Text: KS39 221415Z AUTO 22006KT 10SM BKN039 BKN110 03/01 A2976 RMK AO2
Loading
Personal Weather Stations






























Interactive Weather Map New forecast layout! Learn more

10-Day Weather Forecast

Advertisements
Track Severe Weather on mobile